sensor_id;sensor_type;location;lat;lon;timestamp;pressure;altitude;pressure_sealevel;temperature;humidity
56514;BME280;62152;52.078;8.414;2022-12-29T00:01:02;98829.97;;;17.27;56.14
56514;BME280;62152;52.078;8.414;2022-12-29T00:03:05;98818.22;;;17.27;56.23
56514;BME280;62152;52.078;8.414;2022-12-29T00:05:06;98812.75;;;17.27;56.38
56514;BME280;62152;52.078;8.414;2022-12-29T00:07:08;98812.75;;;17.27;56.00
56514;BME280;62152;52.078;8.414;2022-12-29T00:09:10;98816.25;;;17.27;55.94
56514;BME280;62152;52.078;8.414;2022-12-29T00:11:14;98804.53;;;17.27;55.86
56514;BME280;62152;52.078;8.414;2022-12-29T00:13:16;98792.38;;;17.28;56.45
56514;BME280;62152;52.078;8.414;2022-12-29T00:15:16;98784.56;;;17.26;56.04
56514;BME280;62152;52.078;8.414;2022-12-29T00:17:17;98772.41;;;17.27;56.21
56514;BME280;62152;52.078;8.414;2022-12-29T00:19:20;98766.94;;;17.27;56.24
56514;BME280;62152;52.078;8.414;2022-12-29T00:21:22;98790.03;;;17.26;56.37
56514;BME280;62152;52.078;8.414;2022-12-29T00:23:24;98783.38;;;17.27;56.12
56514;BME280;62152;52.078;8.414;2022-12-29T00:25:25;98760.69;;;17.27;55.90
56514;BME280;62152;52.078;8.414;2022-12-29T00:27:26;98762.25;;;17.28;56.16
56514;BME280;62152;52.078;8.414;2022-12-29T00:29:27;98746.97;;;17.27;56.37
56514;BME280;62152;52.078;8.414;2022-12-29T00:31:28;98752.47;;;17.27;55.80
56514;BME280;62152;52.078;8.414;2022-12-29T00:33:31;98737.19;;;17.26;55.99
56514;BME280;62152;52.078;8.414;2022-12-29T00:35:38;98749.72;;;17.27;56.09
56514;BME280;62152;52.078;8.414;2022-12-29T00:37:44;98756.75;;;17.28;55.97
56514;BME280;62152;52.078;8.414;2022-12-29T00:39:48;98749.72;;;17.27;56.31
56514;BME280;62152;52.078;8.414;2022-12-29T00:41:48;98759.50;;;17.28;55.74
56514;BME280;62152;52.078;8.414;2022-12-29T00:43:49;98734.06;;;17.27;56.40
56514;BME280;62152;52.078;8.414;2022-12-29T00:45:50;98738.75;;;17.27;56.18
56514;BME280;62152;52.078;8.414;2022-12-29T00:47:50;98748.16;;;17.26;56.08
56514;BME280;62152;52.078;8.414;2022-12-29T00:49:51;98739.53;;;17.27;55.84
56514;BME280;62152;52.078;8.414;2022-12-29T00:51:55;98752.06;;;17.28;55.97
56514;BME280;62152;52.078;8.414;2022-12-29T00:53:56;98747.75;;;17.27;56.49
56514;BME280;62152;52.078;8.414;2022-12-29T00:55:57;98727.81;;;17.27;55.93
56514;BME280;62152;52.078;8.414;2022-12-29T00:57:58;98752.06;;;17.28;56.38
56514;BME280;62152;52.078;8.414;2022-12-29T00:59:59;98725.84;;;17.27;55.62
56514;BME280;62152;52.078;8.414;2022-12-29T01:01:59;98726.25;;;17.26;56.04
56514;BME280;62152;52.078;8.414;2022-12-29T01:04:00;98738.75;;;17.27;55.84
56514;BME280;62152;52.078;8.414;2022-12-29T01:06:03;98733.28;;;17.27;55.88
56514;BME280;62152;52.078;8.414;2022-12-29T01:08:07;98721.13;;;17.28;56.00
56514;BME280;62152;52.078;8.414;2022-12-29T01:10:08;98730.53;;;17.27;55.93
56514;BME280;62152;52.078;8.414;2022-12-29T01:12:10;98728.59;;;17.27;56.20
56514;BME280;62152;52.078;8.414;2022-12-29T01:14:11;98723.88;;;17.28;56.07
56514;BME280;62152;52.078;8.414;2022-12-29T01:16:12;98718.41;;;17.28;55.83
56514;BME280;62152;52.078;8.414;2022-12-29T01:18:13;98716.84;;;17.27;55.82
56514;BME280;62152;52.078;8.414;2022-12-29T01:20:13;98717.63;;;17.27;56.31
56514;BME280;62152;52.078;8.414;2022-12-29T01:22:14;98726.22;;;17.29;55.98
56514;BME280;62152;52.078;8.414;2022-12-29T01:24:18;98706.66;;;17.27;56.25
56514;BME280;62152;52.078;8.414;2022-12-29T01:26:21;98716.84;;;17.27;56.53
56514;BME280;62152;52.078;8.414;2022-12-29T01:28:22;98721.53;;;17.26;56.50
56514;BME280;62152;52.078;8.414;2022-12-29T01:30:23;98727.81;;;17.27;56.32
56514;BME280;62152;52.078;8.414;2022-12-29T01:32:24;98711.75;;;17.29;56.17
56514;BME280;62152;52.078;8.414;2022-12-29T01:34:25;98709.41;;;17.27;55.93
56514;BME280;62152;52.078;8.414;2022-12-29T01:36:26;98711.34;;;17.27;55.77
56514;BME280;62152;52.078;8.414;2022-12-29T01:38:27;98716.84;;;17.27;56.40
56514;BME280;62152;52.078;8.414;2022-12-29T01:40:29;98699.63;;;17.26;55.84
56514;BME280;62152;52.078;8.414;2022-12-29T01:42:32;98696.47;;;17.28;56.07
56514;BME280;62152;52.078;8.414;2022-12-29T01:44:49;98703.91;;;17.27;56.24
56514;BME280;62152;52.078;8.414;2022-12-29T01:46:52;98707.44;;;17.28;55.75
56514;BME280;62152;52.078;8.414;2022-12-29T01:48:58;98700.00;;;17.28;56.01
56514;BME280;62152;52.078;8.414;2022-12-29T01:51:05;98692.97;;;17.27;56.34
56514;BME280;62152;52.078;8.414;2022-12-29T01:53:11;98700.41;;;17.27;56.21
56514;BME280;62152;52.078;8.414;2022-12-29T01:55:18;98701.97;;;17.28;56.22
56514;BME280;62152;52.078;8.414;2022-12-29T01:57:24;98692.97;;;17.27;56.04
56514;BME280;62152;52.078;8.414;2022-12-29T01:59:33;98691.00;;;17.28;56.20
56514;BME280;62152;52.078;8.414;2022-12-29T02:01:38;98682.00;;;17.27;56.36
56514;BME280;62152;52.078;8.414;2022-12-29T02:03:39;98673.78;;;17.27;56.29
56514;BME280;62152;52.078;8.414;2022-12-29T02:05:46;98686.69;;;17.27;56.38
56514;BME280;62152;52.078;8.414;2022-12-29T02:07:53;98677.28;;;17.28;55.66
56514;BME280;62152;52.078;8.414;2022-12-29T02:09:55;98688.25;;;17.28;55.78
56514;BME280;62152;52.078;8.414;2022-12-29T02:11:58;98693.38;;;17.26;55.88
56514;BME280;62152;52.078;8.414;2022-12-29T02:14:01;98691.00;;;17.28;56.22
56514;BME280;62152;52.078;8.414;2022-12-29T02:16:16;98692.19;;;17.27;56.25
56514;BME280;62152;52.078;8.414;2022-12-29T02:18:39;98673.00;;;17.27;55.99
56514;BME280;62152;52.078;8.414;2022-12-29T02:21:24;98694.50;;;17.28;56.20
56514;BME280;62152;52.078;8.414;2022-12-29T02:24:22;98662.03;;;17.27;56.24
56514;BME280;62152;52.078;8.414;2022-12-29T02:26:58;98678.47;;;17.27;55.74
56514;BME280;62152;52.078;8.414;2022-12-29T02:32:13;98662.81;;;17.27;55.84
56514;BME280;62152;52.078;8.414;2022-12-29T02:34:35;98678.47;;;17.27;56.06
56514;BME280;62152;52.078;8.414;2022-12-29T02:36:59;98662.81;;;17.27;56.26
56514;BME280;62152;52.078;8.414;2022-12-29T02:39:14;98673.78;;;17.27;55.83
56514;BME280;62152;52.078;8.414;2022-12-29T02:41:29;98665.16;;;17.29;56.17
56514;BME280;62152;52.078;8.414;2022-12-29T02:43:38;98666.75;;;17.26;56.21
56514;BME280;62152;52.078;8.414;2022-12-29T02:45:50;98658.91;;;17.28;55.72
56514;BME280;62152;52.078;8.414;2022-12-29T02:48:03;98670.63;;;17.29;55.78
56514;BME280;62152;52.078;8.414;2022-12-29T02:50:17;98662.41;;;17.29;56.06
56514;BME280;62152;52.078;8.414;2022-12-29T02:52:30;98666.34;;;17.28;55.86
56514;BME280;62152;52.078;8.414;2022-12-29T02:54:36;98657.34;;;17.27;55.85
56514;BME280;62152;52.078;8.414;2022-12-29T02:56:37;98640.91;;;17.27;55.99
56514;BME280;62152;52.078;8.414;2022-12-29T02:58:38;98645.59;;;17.27;56.49
56514;BME280;62152;52.078;8.414;2022-12-29T03:00:52;98646.38;;;17.27;55.81
56514;BME280;62152;52.078;8.414;2022-12-29T03:03:19;98656.56;;;17.27;56.19
56514;BME280;62152;52.078;8.414;2022-12-29T03:06:06;98645.59;;;17.27;56.22
56514;BME280;62152;52.078;8.414;2022-12-29T03:08:28;98634.63;;;17.27;55.76
56514;BME280;62152;52.078;8.414;2022-12-29T03:10:44;98640.13;;;17.27;56.23
56514;BME280;62152;52.078;8.414;2022-12-29T03:13:08;98646.00;;;17.25;56.40
56514;BME280;62152;52.078;8.414;2022-12-29T03:15:25;98640.91;;;17.27;56.07
56514;BME280;62152;52.078;8.414;2022-12-29T03:17:43;98662.03;;;17.27;55.96
56514;BME280;62152;52.078;8.414;2022-12-29T03:19:59;98642.44;;;17.28;55.85
56514;BME280;62152;52.078;8.414;2022-12-29T03:22:10;98647.16;;;17.28;56.44
56514;BME280;62152;52.078;8.414;2022-12-29T03:24:18;98647.94;;;17.28;55.96
56514;BME280;62152;52.078;8.414;2022-12-29T03:26:23;98636.19;;;17.28;56.17
56514;BME280;62152;52.078;8.414;2022-12-29T03:28:28;98644.41;;;17.28;55.99
56514;BME280;62152;52.078;8.414;2022-12-29T03:30:36;98640.50;;;17.29;56.16
56514;BME280;62152;52.078;8.414;2022-12-29T03:32:44;98651.44;;;17.29;55.82
56514;BME280;62152;52.078;8.414;2022-12-29T03:34:50;98647.16;;;17.28;56.41
56514;BME280;62152;52.078;8.414;2022-12-29T03:37:00;98636.19;;;17.28;55.68
56514;BME280;62152;52.078;8.414;2022-12-29T03:39:10;98636.19;;;17.28;55.89
56514;BME280;62152;52.078;8.414;2022-12-29T03:41:18;98624.44;;;17.27;56.53
56514;BME280;62152;52.078;8.414;2022-12-29T03:43:24;98620.53;;;17.28;55.98
56514;BME280;62152;52.078;8.414;2022-12-29T03:45:27;98618.56;;;17.29;56.29
56514;BME280;62152;52.078;8.414;2022-12-29T03:47:28;98622.50;;;17.28;56.26
56514;BME280;62152;52.078;8.414;2022-12-29T03:49:29;98620.53;;;17.28;56.17
56514;BME280;62152;52.078;8.414;2022-12-29T03:51:31;98617.78;;;17.28;56.21
56514;BME280;62152;52.078;8.414;2022-12-29T03:53:32;98617.41;;;17.26;55.95
56514;BME280;62152;52.078;8.414;2022-12-29T03:55:32;98609.19;;;17.26;55.91
56514;BME280;62152;52.078;8.414;2022-12-29T03:57:33;98613.50;;;17.27;55.79
56514;BME280;62152;52.078;8.414;2022-12-29T03:59:34;98618.56;;;17.29;56.01
56514;BME280;62152;52.078;8.414;2022-12-29T04:01:35;98620.53;;;17.28;56.22
56514;BME280;62152;52.078;8.414;2022-12-29T04:03:36;98604.09;;;17.28;56.04
56514;BME280;62152;52.078;8.414;2022-12-29T04:05:37;98614.28;;;17.28;56.44
56514;BME280;62152;52.078;8.414;2022-12-29T04:07:39;98598.63;;;17.28;56.29
56514;BME280;62152;52.078;8.414;2022-12-29T04:09:39;98613.09;;;17.29;56.24
56514;BME280;62152;52.078;8.414;2022-12-29T04:11:40;98595.88;;;17.28;56.48
56514;BME280;62152;52.078;8.414;2022-12-29T04:13:41;98615.06;;;17.28;55.90
56514;BME280;62152;52.078;8.414;2022-12-29T04:15:42;98601.75;;;17.27;55.99
56514;BME280;62152;52.078;8.414;2022-12-29T04:17:43;98607.59;;;17.29;56.17
56514;BME280;62152;52.078;8.414;2022-12-29T04:19:44;98626.78;;;17.29;55.81
56514;BME280;62152;52.078;8.414;2022-12-29T04:21:45;98613.13;;;17.25;56.02
56514;BME280;62152;52.078;8.414;2022-12-29T04:23:47;98603.31;;;17.28;56.18
56514;BME280;62152;52.078;8.414;2022-12-29T04:25:48;98601.34;;;17.28;56.37
56514;BME280;62152;52.078;8.414;2022-12-29T04:27:49;98603.31;;;17.28;56.04
56514;BME280;62152;52.078;8.414;2022-12-29T04:29:49;98597.06;;;17.27;56.04
56514;BME280;62152;52.078;8.414;2022-12-29T04:31:50;98615.84;;;17.29;55.67
56514;BME280;62152;52.078;8.414;2022-12-29T04:33:51;98610.34;;;17.29;56.20
56514;BME280;62152;52.078;8.414;2022-12-29T04:35:52;98617.00;;;17.28;55.98
56514;BME280;62152;52.078;8.414;2022-12-29T04:37:52;98606.06;;;17.28;55.96
56514;BME280;62152;52.078;8.414;2022-12-29T04:39:54;98600.16;;;17.29;56.17
56514;BME280;62152;52.078;8.414;2022-12-29T04:41:55;98607.59;;;17.29;55.81
56514;BME280;62152;52.078;8.414;2022-12-29T04:43:56;98597.06;;;17.27;56.20
56514;BME280;62152;52.078;8.414;2022-12-29T04:45:57;98623.69;;;17.27;55.98
56514;BME280;62152;52.078;8.414;2022-12-29T04:47:58;98601.34;;;17.28;56.18
56514;BME280;62152;52.078;8.414;2022-12-29T04:49:58;98603.31;;;17.28;56.25
56514;BME280;62152;52.078;8.414;2022-12-29T04:51:59;98583.34;;;17.27;56.05
56514;BME280;62152;52.078;8.414;2022-12-29T04:54:00;98576.69;;;17.28;56.33
56514;BME280;62152;52.078;8.414;2022-12-29T04:56:02;98592.34;;;17.28;56.28
56514;BME280;62152;52.078;8.414;2022-12-29T04:58:03;98610.34;;;17.29;56.20
56514;BME280;62152;52.078;8.414;2022-12-29T05:00:05;98600.16;;;17.29;56.16
56514;BME280;62152;52.078;8.414;2022-12-29T05:02:07;98588.44;;;17.29;55.67
56514;BME280;62152;52.078;8.414;2022-12-29T05:04:08;98604.88;;;17.29;55.85
56514;BME280;62152;52.078;8.414;2022-12-29T05:06:09;98590.38;;;17.28;56.24
56514;BME280;62152;52.078;8.414;2022-12-29T05:08:09;98598.25;;;17.30;56.36
56514;BME280;62152;52.078;8.414;2022-12-29T05:10:10;98581.41;;;17.28;56.02
56514;BME280;62152;52.078;8.414;2022-12-29T05:12:13;98591.94;;;17.29;56.15
56514;BME280;62152;52.078;8.414;2022-12-29T05:14:14;98579.44;;;17.28;55.74
56514;BME280;62152;52.078;8.414;2022-12-29T05:16:14;98570.44;;;17.28;56.00
56514;BME280;62152;52.078;8.414;2022-12-29T05:18:15;98575.91;;;17.28;55.96
56514;BME280;62152;52.078;8.414;2022-12-29T05:20:17;98557.91;;;17.27;56.21
56514;BME280;62152;52.078;8.414;2022-12-29T05:22:18;98559.47;;;17.28;56.22
56514;BME280;62152;52.078;8.414;2022-12-29T05:24:19;98555.19;;;17.27;56.10
56514;BME280;62152;52.078;8.414;2022-12-29T05:26:20;98555.53;;;17.29;55.81
56514;BME280;62152;52.078;8.414;2022-12-29T05:28:22;98552.03;;;17.28;56.21
56514;BME280;62152;52.078;8.414;2022-12-29T05:30:23;98555.53;;;17.29;55.65
56514;BME280;62152;52.078;8.414;2022-12-29T05:32:24;98547.31;;;17.29;56.29
56514;BME280;62152;52.078;8.414;2022-12-29T05:34:25;98545.78;;;17.28;56.31
56514;BME280;62152;52.078;8.414;2022-12-29T05:36:26;98547.31;;;17.29;56.13
56514;BME280;62152;52.078;8.414;2022-12-29T05:38:27;98532.84;;;17.28;55.64
56514;BME280;62152;52.078;8.414;2022-12-29T05:40:27;98536.38;;;17.29;55.82
56514;BME280;62152;52.078;8.414;2022-12-29T05:42:28;98539.09;;;17.29;56.16
56514;BME280;62152;52.078;8.414;2022-12-29T05:44:30;98554.78;;;17.28;55.67
56514;BME280;62152;52.078;8.414;2022-12-29T05:46:32;98538.31;;;17.28;56.04
56514;BME280;62152;52.078;8.414;2022-12-29T05:48:32;98529.75;;;17.26;56.18
56514;BME280;62152;52.078;8.414;2022-12-29T05:50:33;98526.19;;;17.29;56.22
56514;BME280;62152;52.078;8.414;2022-12-29T05:52:34;98536.38;;;17.29;55.89
56514;BME280;62152;52.078;8.414;2022-12-29T05:54:35;98537.56;;;17.28;56.30
56514;BME280;62152;52.078;8.414;2022-12-29T05:56:35;98528.16;;;17.29;55.91
56514;BME280;62152;52.078;8.414;2022-12-29T05:58:36;98533.63;;;17.29;56.12
56514;BME280;62152;52.078;8.414;2022-12-29T06:00:38;98535.59;;;17.28;56.21
56514;BME280;62152;52.078;8.414;2022-12-29T06:02:39;98532.84;;;17.28;55.84
56514;BME280;62152;52.078;8.414;2022-12-29T06:04:40;98543.03;;;17.28;56.25
56514;BME280;62152;52.078;8.414;2022-12-29T06:06:41;98573.16;;;17.28;56.26
56514;BME280;62152;52.078;8.414;2022-12-29T06:08:41;98621.31;;;17.29;55.90
56514;BME280;62152;52.078;8.414;2022-12-29T06:10:42;98673.78;;;17.31;56.29
56514;BME280;62152;52.078;8.414;2022-12-29T06:12:44;98647.16;;;17.31;55.56
56514;BME280;62152;52.078;8.414;2022-12-29T06:14:47;98640.13;;;17.30;56.26
56514;BME280;62152;52.078;8.414;2022-12-29T06:16:49;98641.69;;;17.31;55.79
56514;BME280;62152;52.078;8.414;2022-12-29T06:18:50;98640.91;;;17.31;55.75
56514;BME280;62152;52.078;8.414;2022-12-29T06:20:51;98632.28;;;17.29;55.90
56514;BME280;62152;52.078;8.414;2022-12-29T06:22:51;98639.34;;;17.30;56.30
56514;BME280;62152;52.078;8.414;2022-12-29T06:24:52;98636.59;;;17.30;55.90
56514;BME280;62152;52.078;8.414;2022-12-29T06:26:53;98641.28;;;17.29;56.09
56514;BME280;62152;52.078;8.414;2022-12-29T06:28:54;98649.50;;;17.29;56.37
56514;BME280;62152;52.078;8.414;2022-12-29T06:30:55;98647.56;;;17.30;56.28
56514;BME280;62152;52.078;8.414;2022-12-29T06:32:57;98637.38;;;17.27;56.27
56514;BME280;62152;52.078;8.414;2022-12-29T06:34:58;98626.78;;;17.29;56.21
56514;BME280;62152;52.078;8.414;2022-12-29T06:36:59;98620.53;;;17.28;56.53
56514;BME280;62152;52.078;8.414;2022-12-29T06:39:00;98623.28;;;17.28;56.39
56514;BME280;62152;52.078;8.414;2022-12-29T06:41:01;98640.50;;;17.29;56.09
56514;BME280;62152;52.078;8.414;2022-12-29T06:43:02;98645.19;;;17.28;55.99
56514;BME280;62152;52.078;8.414;2022-12-29T06:45:03;98631.50;;;17.28;55.83
56514;BME280;62152;52.078;8.414;2022-12-29T06:47:05;98625.22;;;17.28;55.89
56514;BME280;62152;52.078;8.414;2022-12-29T06:49:07;98646.38;;;17.27;55.85
56514;BME280;62152;52.078;8.414;2022-12-29T06:51:08;98640.50;;;17.29;56.31
56514;BME280;62152;52.078;8.414;2022-12-29T06:53:09;98642.09;;;17.30;56.34
56514;BME280;62152;52.078;8.414;2022-12-29T06:55:10;98643.22;;;17.29;55.80
56514;BME280;62152;52.078;8.414;2022-12-29T06:57:10;98654.97;;;17.29;55.93
56514;BME280;62152;52.078;8.414;2022-12-29T06:59:11;98658.13;;;17.28;56.40
56514;BME280;62152;52.078;8.414;2022-12-29T07:01:12;98663.59;;;17.28;56.40
56514;BME280;62152;52.078;8.414;2022-12-29T07:03:13;98670.63;;;17.29;55.97
56514;BME280;62152;52.078;8.414;2022-12-29T07:05:15;98679.63;;;17.29;55.91
56514;BME280;62152;52.078;8.414;2022-12-29T07:07:16;98681.59;;;17.29;56.29
56514;BME280;62152;52.078;8.414;2022-12-29T07:09:17;98687.84;;;17.29;56.20
56514;BME280;62152;52.078;8.414;2022-12-29T07:11:18;98675.75;;;17.27;56.24
56514;BME280;62152;52.078;8.414;2022-12-29T07:13:18;98678.84;;;17.29;55.99
56514;BME280;62152;52.078;8.414;2022-12-29T07:15:19;98680.03;;;17.28;55.85
56514;BME280;62152;52.078;8.414;2022-12-29T07:17:20;98680.03;;;17.28;56.24
56514;BME280;62152;52.078;8.414;2022-12-29T07:19:21;98674.97;;;17.26;55.78
56514;BME280;62152;52.078;8.414;2022-12-29T07:21:23;98694.50;;;17.28;56.47
56514;BME280;62152;52.078;8.414;2022-12-29T07:23:24;98702.72;;;17.28;55.96
56514;BME280;62152;52.078;8.414;2022-12-29T07:25:25;98685.50;;;17.28;56.44
56514;BME280;62152;52.078;8.414;2022-12-29T07:27:25;98697.25;;;17.28;56.45
56514;BME280;62152;52.078;8.414;2022-12-29T07:29:27;98687.47;;;17.27;56.02
56514;BME280;62152;52.078;8.414;2022-12-29T07:31:28;98694.50;;;17.28;56.37
56514;BME280;62152;52.078;8.414;2022-12-29T07:33:29;98685.13;;;17.26;56.34
56514;BME280;62152;52.078;8.414;2022-12-29T07:35:30;98689.44;;;17.27;56.30
56514;BME280;62152;52.078;8.414;2022-12-29T07:37:33;98683.97;;;17.27;56.40
56514;BME280;62152;52.078;8.414;2022-12-29T07:39:34;98685.50;;;17.28;55.78
56514;BME280;62152;52.078;8.414;2022-12-29T07:41:34;98691.78;;;17.28;55.93
56514;BME280;62152;52.078;8.414;2022-12-29T07:43:35;98697.25;;;17.28;55.80
56514;BME280;62152;52.078;8.414;2022-12-29T07:45:36;98707.03;;;17.29;56.08
56514;BME280;62152;52.078;8.414;2022-12-29T07:47:37;98706.25;;;17.29;55.89
56514;BME280;62152;52.078;8.414;2022-12-29T07:49:38;98707.44;;;17.28;55.82
56514;BME280;62152;52.078;8.414;2022-12-29T07:51:39;98709.00;;;17.29;55.67
56514;BME280;62152;52.078;8.414;2022-12-29T07:53:41;98698.03;;;17.29;56.12
56514;BME280;62152;52.078;8.414;2022-12-29T07:55:41;98714.09;;;17.30;56.22
56514;BME280;62152;52.078;8.414;2022-12-29T07:57:43;98719.97;;;17.29;55.78
56514;BME280;62152;52.078;8.414;2022-12-29T07:59:43;98734.44;;;17.29;56.17
56514;BME280;62152;52.078;8.414;2022-12-29T08:01:44;98730.13;;;17.28;56.22
56514;BME280;62152;52.078;8.414;2022-12-29T08:03:45;98730.91;;;17.29;56.18
56514;BME280;62152;52.078;8.414;2022-12-29T08:05:46;98729.34;;;17.28;56.16
56514;BME280;62152;52.078;8.414;2022-12-29T08:07:47;98737.19;;;17.29;55.58
56514;BME280;62152;52.078;8.414;2022-12-29T08:09:49;98722.31;;;17.27;56.03
56514;BME280;62152;52.078;8.414;2022-12-29T08:11:50;98730.13;;;17.28;55.70
56514;BME280;62152;52.078;8.414;2022-12-29T08:13:52;98745.03;;;17.27;56.17
56514;BME280;62152;52.078;8.414;2022-12-29T08:15:53;98737.59;;;17.28;55.71
56514;BME280;62152;52.078;8.414;2022-12-29T08:17:54;98734.84;;;17.28;55.94
56514;BME280;62152;52.078;8.414;2022-12-29T08:19:54;98736.03;;;17.27;55.84
56514;BME280;62152;52.078;8.414;2022-12-29T08:21:55;98745.81;;;17.28;55.98
56514;BME280;62152;52.078;8.414;2022-12-29T08:23:56;98741.91;;;17.25;56.08
56514;BME280;62152;52.078;8.414;2022-12-29T08:25:59;98729.34;;;17.28;56.18
56514;BME280;62152;52.078;8.414;2022-12-29T08:28:01;98740.31;;;17.28;55.89
56514;BME280;62152;52.078;8.414;2022-12-29T08:30:02;98745.41;;;17.29;56.06
56514;BME280;62152;52.078;8.414;2022-12-29T08:32:04;98737.59;;;17.28;55.88
56514;BME280;62152;52.078;8.414;2022-12-29T08:34:04;98732.88;;;17.28;55.69
56514;BME280;62152;52.078;8.414;2022-12-29T08:36:07;98754.03;;;17.28;56.30
56514;BME280;62152;52.078;8.414;2022-12-29T08:38:08;98744.25;;;17.27;55.77
56514;BME280;62152;52.078;8.414;2022-12-29T08:40:10;98743.06;;;17.28;55.94
56514;BME280;62152;52.078;8.414;2022-12-29T08:42:12;98738.75;;;17.30;55.82
56514;BME280;62152;52.078;8.414;2022-12-29T08:44:13;98743.47;;;17.30;55.89
56514;BME280;62152;52.078;8.414;2022-12-29T08:46:15;98750.09;;;17.29;55.64
56514;BME280;62152;52.078;8.414;2022-12-29T08:48:18;98754.03;;;17.28;55.94
56514;BME280;62152;52.078;8.414;2022-12-29T08:50:19;98746.56;;;17.28;55.81
56514;BME280;62152;52.078;8.414;2022-12-29T08:52:20;98763.03;;;17.28;56.12
56514;BME280;62152;52.078;8.414;2022-12-29T08:54:20;98761.84;;;17.29;55.73
56514;BME280;62152;52.078;8.414;2022-12-29T08:56:22;98751.69;;;17.30;55.83
56514;BME280;62152;52.078;8.414;2022-12-29T08:58:25;98764.97;;;17.28;55.85
56514;BME280;62152;52.078;8.414;2022-12-29T09:00:26;98755.59;;;17.29;56.24
56514;BME280;62152;52.078;8.414;2022-12-29T09:02:27;98758.31;;;17.29;55.93
56514;BME280;62152;52.078;8.414;2022-12-29T09:04:28;98752.84;;;17.29;56.16
56514;BME280;62152;52.078;8.414;2022-12-29T09:06:29;98754.81;;;17.28;55.70
56514;BME280;62152;52.078;8.414;2022-12-29T09:08:29;98758.31;;;17.29;56.13
56514;BME280;62152;52.078;8.414;2022-12-29T09:10:30;98759.91;;;17.30;55.68
56514;BME280;62152;52.078;8.414;2022-12-29T09:12:31;98754.44;;;17.30;55.90
56514;BME280;62152;52.078;8.414;2022-12-29T09:14:33;98757.16;;;17.30;56.02
56514;BME280;62152;52.078;8.414;2022-12-29T09:16:35;98753.25;;;17.31;56.13
56514;BME280;62152;52.078;8.414;2022-12-29T09:18:37;98753.25;;;17.31;55.90
56514;BME280;62152;52.078;8.414;2022-12-29T09:20:39;98750.50;;;17.31;56.03
56514;BME280;62152;52.078;8.414;2022-12-29T09:22:41;98751.28;;;17.31;56.26
56514;BME280;62152;52.078;8.414;2022-12-29T09:24:42;98749.72;;;17.30;55.63
56514;BME280;62152;52.078;8.414;2022-12-29T09:26:44;98746.22;;;17.30;56.16
56514;BME280;62152;52.078;8.414;2022-12-29T09:28:44;98755.59;;;17.29;56.20
56514;BME280;62152;52.078;8.414;2022-12-29T09:30:47;98766.53;;;17.29;55.69
56514;BME280;62152;52.078;8.414;2022-12-29T09:32:49;98769.28;;;17.29;55.66
56514;BME280;62152;52.078;8.414;2022-12-29T09:34:50;98763.81;;;17.29;55.85
56514;BME280;62152;52.078;8.414;2022-12-29T09:36:50;98755.19;;;17.27;56.03
56514;BME280;62152;52.078;8.414;2022-12-29T09:38:52;98766.53;;;17.29;56.14
56514;BME280;62152;52.078;8.414;2022-12-29T09:40:55;98783.75;;;17.29;55.93
56514;BME280;62152;52.078;8.414;2022-12-29T09:43:11;98771.66;;;17.30;56.06
56514;BME280;62152;52.078;8.414;2022-12-29T09:45:34;98760.69;;;17.30;55.98
56514;BME280;62152;52.078;8.414;2022-12-29T09:47:43;98767.31;;;17.29;56.23
56514;BME280;62152;52.078;8.414;2022-12-29T09:49:52;98779.47;;;17.32;56.18
56514;BME280;62152;52.078;8.414;2022-12-29T09:52:03;98771.25;;;17.32;56.05
56514;BME280;62152;52.078;8.414;2022-12-29T09:54:34;98781.44;;;17.31;55.91
56514;BME280;62152;52.078;8.414;2022-12-29T09:56:43;98772.81;;;17.33;55.74
56514;BME280;62152;52.078;8.414;2022-12-29T09:58:53;98783.38;;;17.31;56.10
56514;BME280;62152;52.078;8.414;2022-12-29T10:01:02;98775.94;;;17.31;55.65
56514;BME280;62152;52.078;8.414;2022-12-29T10:03:15;98779.09;;;17.30;56.20
56514;BME280;62152;52.078;8.414;2022-12-29T10:05:30;98767.72;;;17.31;56.14
56514;BME280;62152;52.078;8.414;2022-12-29T10:07:48;98765.38;;;17.30;55.94
56514;BME280;62152;52.078;8.414;2022-12-29T10:10:02;98774.00;;;17.32;55.97
56514;BME280;62152;52.078;8.414;2022-12-29T10:12:22;98777.91;;;17.31;55.76
56514;BME280;62152;52.078;8.414;2022-12-29T10:14:45;98784.94;;;17.32;56.16
56514;BME280;62152;52.078;8.414;2022-12-29T10:17:04;98759.50;;;17.31;56.07
56514;BME280;62152;52.078;8.414;2022-12-29T10:19:42;98768.50;;;17.32;55.74
56514;BME280;62152;52.078;8.414;2022-12-29T10:22:07;98779.06;;;17.33;56.19
56514;BME280;62152;52.078;8.414;2022-12-29T10:24:19;98779.06;;;17.33;55.96
56514;BME280;62152;52.078;8.414;2022-12-29T10:26:27;98784.56;;;17.33;55.93
56514;BME280;62152;52.078;8.414;2022-12-29T10:28:37;98772.81;;;17.33;55.68
56514;BME280;62152;52.078;8.414;2022-12-29T10:30:41;98773.59;;;17.33;55.97
56514;BME280;62152;52.078;8.414;2022-12-29T10:32:50;98784.94;;;17.32;55.96
56514;BME280;62152;52.078;8.414;2022-12-29T10:35:00;98775.56;;;17.33;55.79
56514;BME280;62152;52.078;8.414;2022-12-29T10:37:14;98777.91;;;17.31;55.65
56514;BME280;62152;52.078;8.414;2022-12-29T10:39:30;98764.22;;;17.31;55.98
56514;BME280;62152;52.078;8.414;2022-12-29T10:41:39;98790.44;;;17.32;55.98
56514;BME280;62152;52.078;8.414;2022-12-29T10:43:52;98771.25;;;17.32;55.86
56514;BME280;62152;52.078;8.414;2022-12-29T10:46:01;98784.94;;;17.32;55.94
56514;BME280;62152;52.078;8.414;2022-12-29T10:48:11;98781.03;;;17.33;55.66
56514;BME280;62152;52.078;8.414;2022-12-29T10:50:17;98785.72;;;17.32;55.95
56514;BME280;62152;52.078;8.414;2022-12-29T10:52:21;98787.31;;;17.30;56.21
56514;BME280;62152;52.078;8.414;2022-12-29T10:54:29;98784.94;;;17.32;55.88
56514;BME280;62152;52.078;8.414;2022-12-29T10:56:41;98776.31;;;17.33;56.12
56514;BME280;62152;52.078;8.414;2022-12-29T10:58:49;98775.56;;;17.33;55.76
56514;BME280;62152;52.078;8.414;2022-12-29T11:00:55;98788.88;;;17.31;55.76
56514;BME280;62152;52.078;8.414;2022-12-29T11:03:29;98787.69;;;17.32;55.77